Time;durP1;ratioP1;P1;durP2;ratioP2;P2;SDS_P1;SDS_P2;PMS_P1;PMS_P2;Temp;Humidity;BMP_temperature;BMP_pressure;BME280_temperature;BME280_humidity;BME280_pressure;Samples;Min_cycle;Max_cycle;Signal;HPM_P1;HPM_P2
2023/01/09 00:01:38;;;;;;;2.80;1.00;;;;;;;7.93;83.00;99171.09;3602608;39;20051;-65
2023/01/09 00:04:04;;;;;;;2.83;1.25;;;;;;;7.91;83.09;99160.50;3602538;39;20052;-65
2023/01/09 00:06:29;;;;;;;2.53;1.40;;;;;;;7.85;83.15;99158.31;3599449;39;20136;-65
2023/01/09 00:08:56;;;;;;;0.88;0.80;;;;;;;7.74;82.33;99144.06;3609859;39;20770;-64
2023/01/09 00:11:22;;;;;;;1.73;0.70;;;;;;;7.79;82.06;99166.81;3604831;39;20059;-65
2023/01/09 00:13:48;;;;;;;0.57;0.57;;;;;;;7.46;82.64;99127.47;3604328;39;20307;-65
2023/01/09 00:16:15;;;;;;;1.23;0.70;;;;;;;7.74;82.52;99177.03;3607260;39;20333;-65
2023/01/09 00:18:41;;;;;;;1.80;0.82;;;;;;;7.73;82.16;99177.13;3606096;39;20047;-65
2023/01/09 00:21:09;;;;;;;1.45;1.00;;;;;;;7.68;82.73;99181.00;3605205;39;20051;-65
2023/01/09 00:23:36;;;;;;;1.23;0.70;;;;;;;7.49;82.04;99163.81;3604559;39;20047;-65
2023/01/09 00:26:16;;;;;;;0.50;0.50;;;;;;;7.57;82.63;99186.31;3602580;39;20064;-65
2023/01/09 00:28:44;;;;;;;1.42;0.60;;;;;;;7.53;82.33;99190.19;3605693;39;20044;-65
2023/01/09 00:31:11;;;;;;;1.17;0.55;;;;;;;7.47;82.98;99179.97;3609516;39;20286;-65
2023/01/09 00:34:04;;;;;;;1.77;0.95;;;;;;;7.44;82.83;99188.22;3608460;39;20043;-65
2023/01/09 00:36:30;;;;;;;0.82;0.82;;;;;;;7.35;82.62;99186.22;3603197;39;20055;-65
2023/01/09 00:38:59;;;;;;;1.70;0.85;;;;;;;7.39;82.25;99188.56;3602403;39;20387;-65
2023/01/09 00:41:46;;;;;;;1.65;0.80;;;;;;;7.31;83.02;99184.75;3602168;39;20055;-65
2023/01/09 00:44:30;;;;;;;1.75;0.82;;;;;;;7.31;82.56;99193.63;3609627;39;20051;-63
2023/01/09 00:47:06;;;;;;;2.35;1.00;;;;;;;7.28;82.22;99185.84;3607958;39;20062;-64
2023/01/09 00:49:36;;;;;;;2.22;0.95;;;;;;;7.26;82.31;99192.25;3605015;39;20058;-63
2023/01/09 00:52:06;;;;;;;1.33;0.80;;;;;;;7.18;81.84;99185.66;3608860;39;20066;-63
2023/01/09 00:54:32;;;;;;;3.78;0.90;;;;;;;7.11;83.05;99178.22;3613964;39;20050;-63
2023/01/09 00:56:59;;;;;;;2.72;1.10;;;;;;;7.01;82.38;99172.72;3615155;39;20051;-63
2023/01/09 00:59:27;;;;;;;3.42;1.38;;;;;;;7.17;82.34;99189.31;3610856;39;20047;-63
2023/01/09 01:01:52;;;;;;;2.47;1.20;;;;;;;7.10;82.61;99188.03;3609595;39;20054;-63
2023/01/09 01:09:46;;;;;;;1.27;1.17;;;;;;;7.11;83.06;99194.25;3610487;39;20115;-62
2023/01/09 01:12:11;;;;;;;3.00;1.20;;;;;;;7.10;83.13;99190.72;3616871;39;20046;-62
2023/01/09 01:14:38;;;;;;;2.55;1.30;;;;;;;7.07;82.88;99193.63;3613830;39;20058;-63
2023/01/09 01:17:05;;;;;;;0.90;0.80;;;;;;;7.08;81.81;99200.69;3612208;39;20054;-64
2023/01/09 01:19:33;;;;;;;2.67;1.52;;;;;;;7.06;82.04;99199.09;3613844;39;20046;-63
2023/01/09 01:21:58;;;;;;;2.60;1.17;;;;;;;7.03;82.72;99205.50;3613409;39;20075;-64
2023/01/09 01:24:24;;;;;;;1.30;1.05;;;;;;;7.01;82.06;99193.22;3613320;39;20058;-64
2023/01/09 01:26:50;;;;;;;2.42;1.40;;;;;;;6.99;82.26;99201.34;3613134;39;20088;-64
2023/01/09 01:29:15;;;;;;;1.70;1.10;;;;;;;6.98;82.63;99205.00;3610964;39;20058;-62
2023/01/09 01:31:41;;;;;;;1.77;1.27;;;;;;;6.95;82.57;99202.56;3606286;39;20062;-64
2023/01/09 01:34:06;;;;;;;1.67;1.05;;;;;;;6.92;82.11;99210.78;3609419;39;20059;-63
2023/01/09 01:36:33;;;;;;;1.50;1.08;;;;;;;6.89;82.46;99208.34;3612667;39;20421;-64
2023/01/09 01:38:59;;;;;;;2.60;1.05;;;;;;;6.85;82.31;99212.16;3605360;39;20066;-64
2023/01/09 01:41:28;;;;;;;1.73;0.85;;;;;;;6.79;82.55;99199.25;3612354;39;20043;-64
2023/01/09 01:44:00;;;;;;;2.20;1.20;;;;;;;6.84;82.52;99210.47;3612564;39;20127;-64
2023/01/09 01:46:28;;;;;;;1.33;0.90;;;;;;;6.81;82.86;99214.22;3612678;39;20051;-64
2023/01/09 01:49:11;;;;;;;4.07;1.77;;;;;;;6.77;82.98;99217.22;3612178;39;20066;-63
2023/01/09 01:51:45;;;;;;;3.45;1.27;;;;;;;6.77;83.15;99225.25;3611969;39;20301;-65
2023/01/09 01:54:24;;;;;;;4.05;1.35;;;;;;;6.76;83.00;99215.53;3611681;39;20054;-64
2023/01/09 01:56:57;;;;;;;1.38;1.08;;;;;;;6.70;83.43;99215.00;3611531;39;20045;-64
2023/01/09 01:59:33;;;;;;;1.70;1.13;;;;;;;6.65;82.91;99214.47;3612210;39;20050;-64
2023/01/09 02:02:02;;;;;;;3.33;1.27;;;;;;;6.69;83.23;99221.31;3606639;39;20319;-63
2023/01/09 02:04:33;;;;;;;3.15;1.30;;;;;;;6.66;83.14;99224.19;3609412;39;20468;-63
2023/01/09 02:07:07;;;;;;;1.48;1.20;;;;;;;6.65;83.28;99230.47;3611297;39;20118;-63
2023/01/09 02:09:33;;;;;;;1.65;1.30;;;;;;;6.62;82.81;99224.50;3608346;39;20055;-63
2023/01/09 02:12:00;;;;;;;2.65;0.93;;;;;;;6.61;83.32;99228.16;3612195;39;20062;-63
2023/01/09 02:14:31;;;;;;;1.98;0.85;;;;;;;6.56;83.53;99228.47;3611775;39;20053;-63
2023/01/09 02:17:47;;;;;;;2.50;1.10;;;;;;;6.53;83.31;99226.00;3610649;39;20077;-65
2023/01/09 02:21:05;;;;;;;1.67;1.35;;;;;;;6.54;83.10;99227.75;3594394;39;20052;-64
2023/01/09 02:24:03;;;;;;;2.25;1.10;;;;;;;6.53;83.62;99218.00;3610196;39;20047;-63
2023/01/09 02:26:44;;;;;;;3.95;1.35;;;;;;;6.51;83.02;99220.78;3610548;39;20059;-63
2023/01/09 02:30:03;;;;;;;2.10;1.45;;;;;;;6.48;83.49;99218.34;3611919;39;20087;-64
2023/01/09 02:32:50;;;;;;;2.80;1.60;;;;;;;6.45;83.19;99217.72;3608885;39;20055;-63
2023/01/09 02:35:27;;;;;;;5.97;2.00;;;;;;;6.43;83.85;99212.47;3609310;39;20055;-63
2023/01/09 02:38:30;;;;;;;2.80;1.40;;;;;;;6.45;83.75;99217.72;3611047;39;20114;-63
2023/01/09 02:41:17;;;;;;;4.47;1.88;;;;;;;6.44;83.76;99211.53;3609992;39;20140;-63
2023/01/09 02:43:43;;;;;;;6.28;1.80;;;;;;;6.13;83.44;99172.81;3610851;39;20051;-64
2023/01/09 02:46:21;;;;;;;4.00;1.63;;;;;;;6.39;83.53;99219.00;3611271;39;20053;-63
2023/01/09 02:48:52;;;;;;;3.20;1.90;;;;;;;6.35;83.27;99222.00;3609312;39;20382;-64
2023/01/09 02:51:39;;;;;;;4.32;1.60;;;;;;;6.27;83.52;99209.19;3611393;39;20094;-63
2023/01/09 02:54:29;;;;;;;3.10;1.63;;;;;;;6.31;83.53;99205.31;3611517;39;20107;-64
2023/01/09 02:57:20;;;;;;;4.72;1.48;;;;;;;6.30;83.96;99202.78;3610233;39;20144;-64
2023/01/09 03:00:14;;;;;;;2.55;1.48;;;;;;;6.22;83.65;99190.84;3609296;39;20063;-63
2023/01/09 03:03:05;;;;;;;5.15;1.70;;;;;;;6.25;83.73;99197.78;3602878;39;20055;-63
2023/01/09 03:05:49;;;;;;;3.60;1.73;;;;;;;6.23;83.89;99197.88;3607825;39;20617;-63
2023/01/09 03:08:27;;;;;;;3.10;1.63;;;;;;;6.08;83.67;99172.25;3607772;39;20148;-63
2023/01/09 03:11:06;;;;;;;4.53;1.55;;;;;;;6.17;83.61;99187.63;3610133;39;20120;-64
2023/01/09 03:13:52;;;;;;;6.28;2.20;;;;;;;6.17;83.64;99192.09;3609242;39;20502;-63
2023/01/09 03:16:36;;;;;;;4.28;1.98;;;;;;;6.20;84.47;99192.75;3607974;39;20047;-64
2023/01/09 03:19:07;;;;;;;3.83;1.70;;;;;;;6.17;83.92;99202.78;3610074;39;20409;-64
2023/01/09 03:21:35;;;;;;;5.22;1.95;;;;;;;6.17;84.08;99211.63;3611570;39;20051;-63
2023/01/09 03:24:02;;;;;;;4.30;1.90;;;;;;;6.17;83.99;99208.97;3606205;39;20051;-64
2023/01/09 03:26:28;;;;;;;6.10;1.98;;;;;;;6.09;84.36;99198.00;3611257;39;20050;-64
2023/01/09 03:28:55;;;;;;;8.73;2.00;;;;;;;6.22;84.46;99214.00;3609463;39;20069;-64
2023/01/09 03:31:21;;;;;;;5.40;1.95;;;;;;;6.21;84.06;99215.78;3610111;39;20296;-63
2023/01/09 03:33:46;;;;;;;6.47;2.03;;;;;;;6.24;84.22;99218.25;3609279;39;20386;-63
2023/01/09 03:36:14;;;;;;;5.32;2.08;;;;;;;6.27;84.46;99209.19;3610861;39;20057;-64
2023/01/09 03:38:40;;;;;;;9.30;2.03;;;;;;;6.31;83.72;99215.16;3611154;39;20086;-63
2023/01/09 03:41:06;;;;;;;4.57;1.60;;;;;;;6.29;83.62;99212.59;3610583;39;20301;-64
2023/01/09 03:43:33;;;;;;;6.60;1.90;;;;;;;6.32;83.64;99211.53;3611340;39;20123;-63
2023/01/09 03:45:58;;;;;;;3.20;1.63;;;;;;;6.34;83.39;99210.44;3610069;39;20355;-64
2023/01/09 03:48:24;;;;;;;4.10;2.00;;;;;;;6.35;83.44;99216.66;3610936;39;20051;-63
2023/01/09 03:50:52;;;;;;;2.50;1.50;;;;;;;6.37;83.42;99214.72;3607407;39;20043;-64
2023/01/09 03:53:20;;;;;;;4.45;1.80;;;;;;;6.35;83.69;99212.16;3610159;39;20047;-64
2023/01/09 03:55:49;;;;;;;4.32;1.60;;;;;;;6.39;82.96;99215.47;3609165;39;20053;-63
2023/01/09 03:58:16;;;;;;;6.53;1.83;;;;;;;6.38;83.42;99211.09;3609709;39;20381;-63
2023/01/09 04:00:44;;;;;;;5.20;1.90;;;;;;;6.42;82.99;99212.59;3608832;39;20143;-63
2023/01/09 04:03:11;;;;;;;5.40;1.73;;;;;;;6.45;83.06;99207.03;3609974;39;20063;-63
2023/01/09 04:05:38;;;;;;;6.03;1.90;;;;;;;6.41;82.24;99200.22;3608534;39;20051;-63
2023/01/09 04:08:04;;;;;;;5.15;1.67;;;;;;;6.48;82.96;99217.50;3606065;39;20103;-64
2023/01/09 04:10:30;;;;;;;4.75;1.40;;;;;;;6.51;82.72;99206.59;3610265;39;20057;-63
2023/01/09 04:12:56;;;;;;;3.65;1.92;;;;;;;6.54;82.30;99206.38;3608764;39;20058;-63
2023/01/09 04:15:23;;;;;;;5.90;2.05;;;;;;;6.64;82.73;99214.59;3608505;39;20058;-63
2023/01/09 04:17:49;;;;;;;5.00;1.80;;;;;;;6.70;82.75;99209.66;3609890;39;20119;-63
2023/01/09 04:20:15;;;;;;;6.30;1.98;;;;;;;6.76;81.85;99210.19;3611868;39;20063;-63
2023/01/09 04:22:41;;;;;;;6.38;1.90;;;;;;;6.60;81.86;99163.22;3611885;39;20461;-63
2023/01/09 04:25:07;;;;;;;4.50;1.70;;;;;;;6.89;81.84;99209.19;3611629;39;20096;-63
2023/01/09 04:27:34;;;;;;;3.15;1.75;;;;;;;6.93;81.76;99201.78;3612403;39;20086;-63
2023/01/09 04:30:00;;;;;;;4.47;1.85;;;;;;;6.91;81.72;99199.25;3611681;39;20087;-63
2023/01/09 04:32:26;;;;;;;4.32;1.60;;;;;;;7.05;81.54;99213.41;3610648;39;20054;-63
2023/01/09 04:34:53;;;;;;;4.85;1.55;;;;;;;7.07;81.51;99211.47;3611656;39;20050;-64
2023/01/09 04:37:20;;;;;;;5.35;1.70;;;;;;;7.10;80.75;99209.41;3610914;39;20695;-63
2023/01/09 04:39:46;;;;;;;4.95;1.60;;;;;;;7.16;80.58;99206.28;3611325;39;20057;-64
2023/01/09 04:42:12;;;;;;;3.58;1.10;;;;;;;7.17;80.48;99207.19;3611002;39;20401;-63
2023/01/09 04:44:38;;;;;;;5.55;1.65;;;;;;;7.23;80.17;99209.41;3610955;39;20057;-64
2023/01/09 04:47:04;;;;;;;7.15;1.80;;;;;;;7.26;80.08;99200.28;3611072;39;20293;-64
2023/01/09 04:49:30;;;;;;;5.88;2.00;;;;;;;7.31;79.77;99211.47;3611405;39;20066;-63
2023/01/09 04:51:56;;;;;;;3.78;1.08;;;;;;;7.35;79.16;99215.63;3609830;39;20055;-64
2023/01/09 04:54:22;;;;;;;5.15;1.50;;;;;;;7.37;79.62;99206.53;3611167;39;20050;-63
2023/01/09 04:56:48;;;;;;;7.00;1.70;;;;;;;7.39;79.27;99214.44;3611057;39;20285;-64
2023/01/09 04:59:14;;;;;;;3.40;1.52;;;;;;;7.42;78.90;99208.84;3612700;39;20058;-64
2023/01/09 05:01:40;;;;;;;7.50;2.03;;;;;;;7.49;78.95;99211.94;3610022;39;20054;-63
2023/01/09 05:04:06;;;;;;;6.25;1.77;;;;;;;7.48;79.13;99208.38;3611019;39;20051;-63
2023/01/09 05:06:33;;;;;;;8.95;1.90;;;;;;;7.53;78.61;99211.59;3612205;39;20587;-64
2023/01/09 05:08:59;;;;;;;7.63;1.92;;;;;;;7.57;78.74;99214.88;3605492;39;20057;-63
2023/01/09 05:11:26;;;;;;;6.43;1.98;;;;;;;7.60;78.26;99212.81;3611419;39;20120;-63
2023/01/09 05:13:53;;;;;;;5.78;1.98;;;;;;;7.55;78.13;99204.31;3609471;39;20132;-64
2023/01/09 05:16:20;;;;;;;7.43;1.77;;;;;;;7.64;77.85;99208.97;3611244;39;20332;-63
2023/01/09 05:18:46;;;;;;;5.07;1.33;;;;;;;7.61;77.27;99200.28;3609333;39;20050;-63
2023/01/09 05:21:13;;;;;;;4.65;1.50;;;;;;;7.50;77.69;99174.38;3610872;39;20394;-63
2023/01/09 05:23:38;;;;;;;5.20;1.90;;;;;;;7.72;77.69;99212.88;3609595;39;20128;-63
2023/01/09 05:26:04;;;;;;;4.63;1.50;;;;;;;7.71;78.05;99205.78;3609502;39;20055;-64
2023/01/09 05:28:31;;;;;;;5.63;1.67;;;;;;;7.67;77.71;99197.16;3610716;39;20047;-62
2023/01/09 05:30:57;;;;;;;21.63;8.75;;;;;;;7.76;77.11;99196.47;3610023;39;20067;-62
2023/01/09 05:33:23;;;;;;;4.57;1.75;;;;;;;7.75;77.72;99204.63;3610546;39;20073;-62
2023/01/09 05:35:48;;;;;;;3.53;1.73;;;;;;;7.79;77.49;99206.94;3609438;39;20049;-62
2023/01/09 05:38:15;;;;;;;5.68;1.75;;;;;;;7.65;77.39;99178.56;3612531;39;20412;-62
2023/01/09 05:40:40;;;;;;;8.55;1.63;;;;;;;7.84;77.45;99198.56;3609029;39;20128;-61
2023/01/09 05:43:06;;;;;;;8.55;2.03;;;;;;;7.85;76.58;99200.25;3609333;39;20417;-62
2023/01/09 05:45:32;;;;;;;7.47;1.75;;;;;;;7.87;76.93;99187.63;3610167;39;20059;-62
2023/01/09 05:47:58;;;;;;;4.65;1.60;;;;;;;7.85;76.60;99193.09;3610660;39;20054;-62
2023/01/09 05:50:23;;;;;;;5.88;1.40;;;;;;;7.90;77.40;99190.06;3611072;39;20108;-63
2023/01/09 05:52:49;;;;;;;7.10;1.77;;;;;;;7.91;77.23;99189.09;3612042;39;20270;-62
2023/01/09 05:55:16;;;;;;;4.07;1.42;;;;;;;7.91;76.70;99179.25;3609902;39;20093;-63
2023/01/09 05:57:41;;;;;;;5.47;1.50;;;;;;;7.93;77.02;99183.59;3608159;39;20061;-62
2023/01/09 06:00:08;;;;;;;7.40;1.70;;;;;;;7.96;76.95;99184.25;3609157;39;20047;-63
2023/01/09 06:02:33;;;;;;;5.88;1.80;;;;;;;7.98;76.69;99184.97;3609807;39;20066;-61
2023/01/09 06:04:59;;;;;;;7.43;1.45;;;;;;;7.99;76.39;99192.03;3608566;39;20064;-63
2023/01/09 06:07:24;;;;;;;5.22;2.00;;;;;;;8.03;76.51;99181.94;3609452;39;20117;-63
2023/01/09 06:09:50;;;;;;;5.28;1.73;;;;;;;8.06;76.28;99190.59;3609097;39;20067;-63
2023/01/09 06:12:15;;;;;;;8.23;1.70;;;;;;;8.07;75.74;99173.53;3609059;39;20051;-63
2023/01/09 06:14:41;;;;;;;5.68;1.80;;;;;;;8.11;75.89;99177.69;3606814;39;20055;-62
2023/01/09 06:17:07;;;;;;;8.30;2.00;;;;;;;8.14;75.18;99188.16;3609701;39;20393;-63
2023/01/09 06:19:33;;;;;;;5.32;1.40;;;;;;;8.17;75.80;99183.53;3610269;39;20053;-61
2023/01/09 06:21:58;;;;;;;5.07;1.50;;;;;;;8.21;75.43;99185.00;3609822;39;20063;-62
2023/01/09 06:24:24;;;;;;;7.45;1.40;;;;;;;8.26;74.99;99185.50;3607371;39;20051;-62
2023/01/09 06:26:49;;;;;;;5.28;1.70;;;;;;;8.26;75.10;99189.03;3609164;39;20062;-62
2023/01/09 06:29:15;;;;;;;8.63;2.00;;;;;;;8.31;74.80;99186.84;3609731;39;20051;-62
2023/01/09 06:31:41;;;;;;;5.97;1.63;;;;;;;8.35;75.01;99192.81;3608738;39;20470;-63
2023/01/09 06:34:07;;;;;;;5.18;1.60;;;;;;;8.33;74.95;99192.06;3608543;39;20058;-62
2023/01/09 06:36:33;;;;;;;7.80;1.70;;;;;;;8.30;74.49;99181.59;3609128;39;20090;-62
2023/01/09 06:38:59;;;;;;;7.35;1.90;;;;;;;8.41;73.86;99191.50;3607900;39;20047;-61
2023/01/09 06:41:24;;;;;;;8.20;1.98;;;;;;;8.39;74.19;99198.78;3608168;39;20062;-62
2023/01/09 06:43:50;;;;;;;7.78;1.95;;;;;;;8.43;74.54;99201.09;3608107;39;20329;-62
2023/01/09 06:46:15;;;;;;;7.22;1.50;;;;;;;8.44;74.19;99202.81;3608427;39;20051;-62
2023/01/09 06:48:41;;;;;;;9.38;2.33;;;;;;;8.45;74.39;99199.16;3608559;39;20047;-63
2023/01/09 06:51:07;;;;;;;4.05;1.70;;;;;;;8.45;74.07;99199.16;3609772;39;20054;-61
2023/01/09 06:53:33;;;;;;;10.52;1.92;;;;;;;8.47;74.33;99207.06;3608735;39;20109;-62
2023/01/09 06:56:01;;;;;;;6.50;1.45;;;;;;;8.50;73.83;99204.13;3608934;39;20391;-63
2023/01/09 06:58:27;;;;;;;11.00;2.45;;;;;;;8.53;73.63;99203.91;3607952;39;20420;-63
2023/01/09 07:00:55;;;;;;;12.15;4.43;;;;;;;8.55;73.00;99210.84;3606845;39;20378;-62
2023/01/09 07:03:21;;;;;;;6.30;1.45;;;;;;;8.49;73.13;99200.63;3609231;39;20353;-63
2023/01/09 07:05:48;;;;;;;3.78;1.38;;;;;;;8.58;72.75;99207.91;3605905;39;20054;-65
2023/01/09 07:08:15;;;;;;;7.75;1.85;;;;;;;8.58;72.86;99220.47;3606899;39;20047;-62
2023/01/09 07:10:42;;;;;;;5.30;1.58;;;;;;;8.62;72.50;99221.91;3608140;39;20301;-63
2023/01/09 07:13:08;;;;;;;6.53;1.50;;;;;;;8.39;72.81;99198.78;3606572;39;20079;-63
2023/01/09 07:15:33;;;;;;;9.25;1.50;;;;;;;8.18;73.63;99169.19;3608070;39;20051;-61
2023/01/09 07:17:59;;;;;;;7.40;1.50;;;;;;;8.49;73.88;99232.75;3609249;39;20121;-64
2023/01/09 07:20:25;;;;;;;5.45;1.40;;;;;;;8.42;74.55;99228.84;3608779;39;20061;-63
2023/01/09 07:22:50;;;;;;;5.45;1.35;;;;;;;8.43;75.28;99235.91;3602533;39;20066;-63
2023/01/09 07:25:16;;;;;;;6.22;1.73;;;;;;;8.41;75.61;99245.06;3607872;39;20063;-62
2023/01/09 07:27:42;;;;;;;10.05;2.25;;;;;;;8.39;75.48;99241.63;3610020;39;20119;-63
2023/01/09 07:30:08;;;;;;;5.28;1.67;;;;;;;8.33;75.85;99248.28;3609698;39;20104;-62
2023/01/09 07:32:34;;;;;;;7.78;1.75;;;;;;;8.32;76.44;99258.16;3609785;39;20050;-62
2023/01/09 07:35:00;;;;;;;8.38;2.05;;;;;;;8.26;76.62;99258.63;3611649;39;20335;-63
2023/01/09 07:37:25;;;;;;;8.80;2.10;;;;;;;8.22;77.93;99262.50;3605879;39;20111;-63
2023/01/09 07:39:51;;;;;;;6.70;1.98;;;;;;;8.22;77.67;99267.03;3608272;39;20368;-62
2023/01/09 07:42:17;;;;;;;7.20;1.90;;;;;;;8.16;78.11;99278.19;3605770;39;20087;-64
2023/01/09 07:44:43;;;;;;;6.55;1.85;;;;;;;8.17;78.59;99280.75;3607177;39;20125;-64
2023/01/09 07:47:09;;;;;;;8.18;2.13;;;;;;;8.17;78.87;99280.75;3606853;39;20051;-63
2023/01/09 07:49:35;;;;;;;8.35;1.90;;;;;;;8.19;78.62;99283.31;3605542;39;20051;-63
2023/01/09 07:52:00;;;;;;;7.43;2.22;;;;;;;8.16;77.92;99279.03;3609274;39;20055;-63
2023/01/09 07:54:26;;;;;;;6.63;2.00;;;;;;;8.22;77.66;99285.75;3609937;39;20051;-63
2023/01/09 07:56:51;;;;;;;8.50;1.85;;;;;;;8.23;77.66;99284.78;3606094;39;20071;-62
2023/01/09 07:59:17;;;;;;;6.25;1.80;;;;;;;8.24;77.37;99291.81;3609190;39;20058;-64
2023/01/09 08:01:43;;;;;;;7.28;2.03;;;;;;;8.24;77.90;99283.78;3606926;39;20051;-64
2023/01/09 08:04:09;;;;;;;5.75;1.60;;;;;;;8.23;78.09;99299.00;3607020;39;20399;-65
2023/01/09 08:06:34;;;;;;;4.13;1.70;;;;;;;8.00;77.67;99267.81;3605572;39;20393;-64
2023/01/09 08:09:00;;;;;;;3.80;2.10;;;;;;;8.21;78.31;99302.75;3607398;39;20107;-64
2023/01/09 08:11:26;;;;;;;7.18;2.20;;;;;;;8.24;78.27;99313.25;3608063;39;20373;-64
2023/01/09 08:13:52;;;;;;;6.45;2.00;;;;;;;8.20;79.12;99306.44;3607425;39;20070;-63
2023/01/09 08:16:17;;;;;;;8.00;1.90;;;;;;;8.18;78.79;99313.72;3606749;39;20128;-63
2023/01/09 08:18:43;;;;;;;7.35;2.08;;;;;;;8.19;79.39;99310.09;3606605;39;20057;-63
2023/01/09 08:21:10;;;;;;;5.90;2.10;;;;;;;7.89;78.85;99273.97;3606123;39;20063;-63
2023/01/09 08:23:36;;;;;;;5.57;1.80;;;;;;;8.15;79.42;99320.16;3606417;39;20047;-63
2023/01/09 08:26:03;;;;;;;4.22;1.85;;;;;;;8.14;78.86;99329.16;3606993;39;20048;-63
2023/01/09 08:28:28;;;;;;;6.70;2.05;;;;;;;8.14;79.72;99335.34;3607938;39;20043;-63
2023/01/09 08:30:54;;;;;;;6.07;2.00;;;;;;;8.09;79.44;99326.84;3606077;39;20807;-63
2023/01/09 08:33:20;;;;;;;4.55;1.77;;;;;;;8.12;79.54;99348.00;3606427;39;20138;-63
2023/01/09 08:35:45;;;;;;;6.07;2.40;;;;;;;8.11;80.36;99356.16;3607827;39;20051;-63
2023/01/09 08:38:11;;;;;;;10.70;2.40;;;;;;;8.09;80.34;99361.63;3605940;39;20058;-63
2023/01/09 08:40:37;;;;;;;6.68;2.00;;;;;;;8.10;80.43;99366.00;3609996;39;20054;-62
2023/01/09 08:48:47;;;;;;;6.32;2.08;;;;;;;8.09;81.67;99376.84;3597440;39;20408;-62
2023/01/09 08:51:13;;;;;;;3.45;1.83;;;;;;;8.07;81.43;99376.94;3607164;39;20047;-62
2023/01/09 08:53:38;;;;;;;5.45;1.88;;;;;;;8.05;81.31;99378.00;3606316;39;20286;-61
2023/01/09 08:56:05;;;;;;;5.97;1.75;;;;;;;8.07;81.85;99386.78;3606747;39;20066;-62
2023/01/09 08:58:30;;;;;;;6.60;2.15;;;;;;;8.06;82.09;99398.47;3607339;39;20051;-62
2023/01/09 09:00:57;;;;;;;6.82;2.00;;;;;;;8.04;82.54;99403.06;3605739;39;20092;-62
2023/01/09 09:03:23;;;;;;;8.00;2.83;;;;;;;8.05;81.75;99399.41;3599990;39;20047;-63
2023/01/09 09:05:49;;;;;;;4.22;2.08;;;;;;;8.04;82.88;99409.28;3607274;39;20158;-63
2023/01/09 09:08:15;;;;;;;6.03;2.28;;;;;;;8.04;82.73;99417.31;3607757;39;20405;-63
2023/01/09 09:10:41;;;;;;;6.10;1.92;;;;;;;7.88;82.48;99396.19;3610352;39;20169;-62
2023/01/09 09:13:07;;;;;;;4.53;2.03;;;;;;;8.05;82.71;99421.69;3605614;39;20344;-62
2023/01/09 09:15:33;;;;;;;4.70;1.80;;;;;;;8.04;83.00;99436.03;3608018;39;20110;-62
2023/01/09 09:18:05;;;;;;;4.53;2.00;;;;;;;8.07;82.91;99429.59;3609571;39;20199;-62
2023/01/09 09:20:37;;;;;;;7.27;2.17;;;;;;;8.05;82.35;99443.09;3607045;39;20047;-63
2023/01/09 09:23:05;;;;;;;4.35;2.10;;;;;;;8.05;83.06;99448.44;3605925;39;20417;-63
2023/01/09 09:25:30;;;;;;;5.65;2.05;;;;;;;8.03;83.16;99453.06;3610382;39;20055;-62
2023/01/09 09:27:56;;;;;;;8.32;2.33;;;;;;;8.06;82.70;99450.16;3610385;39;20333;-62
2023/01/09 09:30:23;;;;;;;6.43;2.05;;;;;;;7.75;82.99;99402.56;3610070;39;20128;-62
2023/01/09 09:32:49;;;;;;;7.03;2.25;;;;;;;7.80;83.03;99427.13;3610298;39;20063;-62
2023/01/09 09:35:19;;;;;;;5.93;2.25;;;;;;;7.90;83.00;99439.75;3606709;39;20042;-63
2023/01/09 09:37:57;;;;;;;5.80;2.53;;;;;;;8.07;82.91;99475.94;3607391;39;20057;-62
2023/01/09 09:41:01;;;;;;;6.57;2.22;;;;;;;8.08;83.10;99476.81;3605805;39;20349;-63
2023/01/09 09:47:28;;;;;;;6.22;2.20;;;;;;;8.06;84.06;99487.63;3608990;39;20097;-62
2023/01/09 09:50:02;;;;;;;3.88;2.42;;;;;;;8.09;83.44;99505.28;3606262;39;20158;-63
2023/01/09 09:52:33;;;;;;;4.88;2.40;;;;;;;8.11;83.38;99498.00;3610684;39;20047;-63
2023/01/09 09:55:16;;;;;;;7.50;2.53;;;;;;;8.10;83.17;99512.34;3608656;39;20048;-63
2023/01/09 09:57:46;;;;;;;6.72;2.20;;;;;;;8.14;83.23;99522.72;3598157;39;20043;-63
2023/01/09 10:00:21;;;;;;;7.57;2.65;;;;;;;8.20;83.50;99531.28;3605803;39;20059;-63
2023/01/09 10:03:22;;;;;;;9.98;3.50;;;;;;;8.23;83.56;99528.38;3605953;39;20051;-63
2023/01/09 10:05:52;;;;;;;6.80;3.05;;;;;;;8.26;82.82;99536.19;3581587;39;20300;-63
2023/01/09 10:08:35;;;;;;;4.88;2.95;;;;;;;8.30;81.77;99548.38;3610611;39;20063;-64
2023/01/09 10:11:01;;;;;;;8.30;3.83;;;;;;;8.35;81.87;99552.41;3611685;39;20446;-62
2023/01/09 10:16:51;;;;;;;4.57;2.60;;;;;;;8.44;81.59;99555.44;3611757;39;20123;-61
2023/01/09 10:19:41;;;;;;;7.35;3.35;;;;;;;8.53;82.04;99566.34;3607295;39;20640;-64
2023/01/09 10:22:33;;;;;;;8.75;2.78;;;;;;;8.53;81.03;99558.28;3609847;39;20050;-63
2023/01/09 10:25:43;;;;;;;5.15;2.78;;;;;;;8.53;81.13;99576.16;3610299;39;20067;-63
2023/01/09 10:28:28;;;;;;;5.32;2.80;;;;;;;8.52;81.38;99578.00;3610177;39;21240;-62
2023/01/09 10:31:24;;;;;;;9.00;2.83;;;;;;;8.48;82.13;99579.19;3608202;39;20055;-62
2023/01/09 10:34:24;;;;;;;6.97;3.10;;;;;;;8.44;81.74;99575.03;3611308;39;20051;-62
2023/01/09 10:37:19;;;;;;;7.50;2.58;;;;;;;8.29;82.25;99562.72;3606664;39;20378;-63
2023/01/09 10:39:58;;;;;;;6.70;2.85;;;;;;;8.42;82.12;99579.63;3609301;39;20054;-62
2023/01/09 10:43:05;;;;;;;7.38;3.13;;;;;;;8.46;81.99;99582.94;3607397;39;20070;-62
2023/01/09 10:45:49;;;;;;;5.82;2.95;;;;;;;8.48;82.00;99576.50;3611795;39;20055;-63
2023/01/09 10:48:35;;;;;;;6.78;2.90;;;;;;;8.45;82.08;99574.06;3609583;39;20081;-63
2023/01/09 10:51:11;;;;;;;8.27;3.65;;;;;;;8.42;82.49;99576.97;3609394;39;20059;-62
2023/01/09 10:53:44;;;;;;;6.72;3.65;;;;;;;8.47;81.71;99576.59;3610972;39;20051;-63
2023/01/09 10:56:26;;;;;;;10.00;2.97;;;;;;;8.45;82.41;99589.28;3609264;39;20057;-63
2023/01/09 10:58:54;;;;;;;6.15;3.10;;;;;;;8.49;82.56;99591.59;3611478;39;20051;-63
2023/01/09 11:01:37;;;;;;;9.52;4.03;;;;;;;8.63;82.39;99595.97;3611468;39;20047;-63
2023/01/09 11:04:28;;;;;;;7.07;3.33;;;;;;;8.86;82.07;99598.78;3611050;39;20051;-63
2023/01/09 11:07:21;;;;;;;4.35;2.78;;;;;;;9.05;81.01;99601.78;3605338;39;20092;-63
2023/01/09 11:10:06;;;;;;;9.35;2.88;;;;;;;9.09;80.45;99605.09;3608003;39;20057;-62
2023/01/09 11:12:35;;;;;;;5.82;2.60;;;;;;;9.02;79.42;99613.59;3609880;39;20352;-63
2023/01/09 11:15:15;;;;;;;5.68;2.67;;;;;;;9.08;80.04;99609.59;3611653;39;20316;-62
2023/01/09 11:17:46;;;;;;;6.03;2.97;;;;;;;9.17;78.80;99602.69;3608799;39;20055;-63
2023/01/09 11:20:22;;;;;;;7.20;3.17;;;;;;;9.24;78.58;99607.47;3609670;39;20046;-64
2023/01/09 11:22:56;;;;;;;13.27;6.38;;;;;;;9.37;78.62;99611.91;3607971;39;20051;-64
2023/01/09 11:25:26;;;;;;;7.63;3.72;;;;;;;9.62;77.15;99608.19;3609251;39;20057;-63
2023/01/09 11:28:01;;;;;;;5.53;3.08;;;;;;;10.03;77.16;99617.50;3604182;39;20059;-64
2023/01/09 11:30:29;;;;;;;7.78;3.30;;;;;;;10.35;75.98;99621.19;3602863;39;20417;-63
2023/01/09 11:32:57;;;;;;;6.10;3.10;;;;;;;10.32;74.00;99608.00;3608531;39;20055;-64
2023/01/09 11:35:33;;;;;;;5.57;2.67;;;;;;;10.48;73.19;99633.66;3609121;39;20112;-63
2023/01/09 11:38:15;;;;;;;7.25;3.05;;;;;;;10.56;73.32;99644.63;3609693;39;20463;-62
2023/01/09 11:40:50;;;;;;;6.38;3.08;;;;;;;10.49;72.93;99646.09;3610446;39;20046;-64
2023/01/09 11:43:21;;;;;;;11.07;3.15;;;;;;;10.37;73.83;99646.13;3610903;39;20069;-63
2023/01/09 11:45:56;;;;;;;5.80;2.65;;;;;;;10.20;73.18;99647.41;3609001;39;20051;-62
2023/01/09 11:48:53;;;;;;;6.50;2.70;;;;;;;9.97;74.24;99643.84;3608368;39;20124;-63
2023/01/09 11:51:26;;;;;;;8.63;3.22;;;;;;;9.84;74.58;99651.16;3607779;39;20327;-64
2023/01/09 11:54:28;;;;;;;9.10;3.45;;;;;;;9.73;75.83;99657.34;3611307;39;20131;-64
2023/01/09 11:56:55;;;;;;;7.20;3.70;;;;;;;9.67;75.79;99648.91;3608623;39;20051;-63
2023/01/09 11:59:29;;;;;;;9.05;3.30;;;;;;;9.60;76.14;99658.41;3607600;39;20413;-63
2023/01/09 12:02:00;;;;;;;5.47;3.30;;;;;;;9.54;76.59;99662.41;3609412;39;20051;-64
2023/01/09 12:05:00;;;;;;;8.38;3.53;;;;;;;9.50;76.73;99655.56;3605450;39;20309;-64
2023/01/09 12:08:09;;;;;;;7.38;3.40;;;;;;;9.44;76.22;99654.22;3610077;39;20082;-64
2023/01/09 12:11:00;;;;;;;9.63;3.25;;;;;;;9.41;76.91;99657.13;3609298;39;20055;-65
2023/01/09 12:13:48;;;;;;;8.65;3.10;;;;;;;9.19;76.60;99630.22;3603423;39;20055;-64
2023/01/09 12:16:49;;;;;;;8.82;3.38;;;;;;;9.51;77.71;99644.75;3608028;39;20043;-62
2023/01/09 12:20:08;;;;;;;5.15;2.90;;;;;;;9.79;75.01;99658.69;3605707;39;20104;-62
2023/01/09 12:22:51;;;;;;;4.95;2.85;;;;;;;9.90;74.80;99656.06;3608868;39;20321;-62